createdAt,value
2018-05-21T00:00:15.952Z,65.11
2018-05-21T00:02:43.945Z,64.91
2018-05-21T00:05:11.916Z,65.38
2018-05-21T00:07:39.881Z,67.25
2018-05-21T00:10:07.848Z,65.46
2018-05-21T00:12:35.810Z,65.79
2018-05-21T00:15:03.883Z,65.67
2018-05-21T00:17:31.897Z,66.23
2018-05-21T00:19:59.933Z,66.25
2018-05-21T00:22:28.008Z,66.01
2018-05-21T00:24:55.947Z,65.68
2018-05-21T00:27:24.008Z,66.79
2018-05-21T00:29:51.996Z,66.50
2018-05-21T00:32:20.007Z,66.07
2018-05-21T00:34:48.031Z,65.47
2018-05-21T00:37:15.972Z,66.12
2018-05-21T00:39:43.944Z,66.06
2018-05-21T00:42:11.908Z,65.83
2018-05-21T00:44:39.952Z,68.87
2018-05-21T00:47:08.113Z,66.77
2018-05-21T00:49:36.097Z,66.64
2018-05-21T00:52:04.081Z,66.85
2018-05-21T00:54:32.075Z,69.05
2018-05-21T00:57:00.193Z,68.89
2018-05-21T00:59:28.235Z,67.86
2018-05-21T01:01:56.268Z,69.21
2018-05-21T01:04:24.273Z,69.90
2018-05-21T01:06:52.297Z,70.69
2018-05-21T01:09:20.266Z,70.56
2018-05-21T01:11:48.294Z,70.73
2018-05-21T01:14:16.333Z,70.66
2018-05-21T01:16:44.393Z,71.45
2018-05-21T01:19:12.415Z,71.02
2018-05-21T01:21:40.383Z,69.73
2018-05-21T01:24:08.339Z,68.02
2018-05-21T01:26:36.347Z,68.96
2018-05-21T01:29:04.332Z,69.58
2018-05-21T01:31:32.373Z,67.78
2018-05-21T01:34:00.431Z,69.19
2018-05-21T01:36:28.415Z,69.22
2018-05-21T01:38:56.340Z,67.79
2018-05-21T01:41:24.327Z,67.26
2018-05-21T01:43:52.374Z,67.59
2018-05-21T01:46:20.364Z,66.63
2018-05-21T01:48:48.466Z,68.94
2018-05-21T01:51:16.547Z,68.84
2018-05-21T01:53:44.567Z,68.32
2018-05-21T01:56:12.556Z,68.69
2018-05-21T01:58:40.571Z,67.42
2018-05-21T02:01:08.560Z,66.38
2018-05-21T02:03:36.550Z,66.94
2018-05-21T02:06:04.656Z,67.49
2018-05-21T02:08:32.707Z,66.96
2018-05-21T02:11:00.669Z,67.65
2018-05-21T02:13:28.692Z,68.54
2018-05-21T02:15:56.732Z,67.33
2018-05-21T02:18:24.757Z,67.43
2018-05-21T02:24:08.719Z,68.77
2018-05-21T02:26:37.448Z,68.05
2018-05-21T02:29:06.242Z,68.84
2018-05-21T02:31:34.613Z,67.33
2018-05-21T02:34:03.666Z,67.29
2018-05-21T02:36:31.994Z,67.65
2018-05-21T02:39:00.662Z,67.58
2018-05-21T02:41:28.961Z,68.91
2018-05-21T02:43:57.626Z,67.97
2018-05-21T02:46:26.414Z,68.67
2018-05-21T02:48:54.987Z,70.33
2018-05-21T02:51:23.383Z,68.96
2018-05-21T02:53:51.757Z,67.76
2018-05-21T02:56:20.417Z,67.17
2018-05-21T02:58:49.104Z,67.94
2018-05-21T03:01:18.695Z,68.93
2018-05-21T03:03:47.213Z,69.25
2018-05-21T03:06:15.696Z,69.09
2018-05-21T03:08:44.187Z,69.68
2018-05-21T03:11:12.587Z,67.99
2018-05-21T03:13:41.044Z,67.11
2018-05-21T03:16:09.616Z,67.17
2018-05-21T03:18:37.623Z,66.97
2018-05-21T03:21:05.646Z,66.98
2018-05-21T03:23:33.830Z,66.94
2018-05-21T03:26:02.318Z,67.23
2018-05-21T03:28:30.290Z,67.89
2018-05-21T03:30:58.303Z,67.72
2018-05-21T03:33:26.290Z,67.58
2018-05-21T03:35:54.256Z,68.30
2018-05-21T03:38:22.256Z,67.01
2018-05-21T03:40:50.262Z,66.78
2018-05-21T03:43:18.237Z,66.70
2018-05-21T03:45:46.253Z,66.28
2018-05-21T03:48:14.243Z,66.56
2018-05-21T03:50:42.273Z,66.53
2018-05-21T03:53:10.260Z,66.55
2018-05-21T03:55:38.237Z,65.52
2018-05-21T03:58:06.332Z,66.22
2018-05-21T04:00:46.557Z,66.33
2018-05-21T04:03:27.604Z,65.43
2018-05-21T04:05:55.668Z,68.72
2018-05-21T04:08:24.099Z,69.45
2018-05-21T04:10:52.596Z,68.92
2018-05-21T04:13:21.126Z,71.47
2018-05-21T04:15:49.114Z,72.68
2018-05-21T04:18:17.143Z,71.45
2018-05-21T04:20:45.143Z,71.67
2018-05-21T04:23:13.174Z,72.55
2018-05-21T04:25:41.249Z,71.99
2018-05-21T04:28:10.148Z,70.76
2018-05-21T04:30:38.163Z,69.82
2018-05-21T04:33:06.238Z,70.72
2018-05-21T04:35:34.215Z,70.42
2018-05-21T04:38:02.224Z,70.98
2018-05-21T04:40:30.235Z,70.86
2018-05-21T04:42:58.260Z,68.43
2018-05-21T04:45:26.282Z,68.73
2018-05-21T04:47:54.384Z,70.47
2018-05-21T04:50:22.382Z,71.15
2018-05-21T04:52:50.557Z,71.98
2018-05-21T04:55:18.523Z,71.54
2018-05-21T04:57:46.521Z,69.96
2018-05-21T05:00:14.505Z,69.63
2018-05-21T05:02:42.440Z,68.61
2018-05-21T05:05:10.388Z,68.07
2018-05-21T05:07:38.421Z,68.46
2018-05-21T05:10:06.509Z,69.80
2018-05-21T05:12:34.558Z,67.21
2018-05-21T05:15:02.605Z,67.22
2018-05-21T05:17:30.559Z,66.29
2018-05-21T05:19:58.552Z,64.78
2018-05-21T05:22:26.588Z,64.44
2018-05-21T05:24:54.590Z,65.20
2018-05-21T05:27:22.630Z,65.92
2018-05-21T05:29:51.152Z,65.33
2018-05-21T05:32:19.206Z,65.62
2018-05-21T05:34:47.297Z,63.67
2018-05-21T05:37:15.423Z,60.86
2018-05-21T05:39:43.424Z,61.03
2018-05-21T05:42:11.529Z,60.94
2018-05-21T05:44:39.539Z,60.16
2018-05-21T05:47:07.518Z,64.39
2018-05-21T05:49:35.638Z,63.97
2018-05-21T05:52:03.792Z,64.56
2018-05-21T05:54:31.848Z,63.99
2018-05-21T05:56:59.867Z,63.06
2018-05-21T05:59:27.868Z,61.69
2018-05-21T06:01:55.906Z,61.21
2018-05-21T06:04:23.891Z,60.80
2018-05-21T06:06:51.888Z,61.41
2018-05-21T06:09:19.897Z,61.09
2018-05-21T06:11:47.973Z,60.29
2018-05-21T06:14:16.001Z,61.46
2018-05-21T06:16:44.016Z,62.17
2018-05-21T06:19:12.757Z,61.56
2018-05-21T06:21:40.798Z,62.23
2018-05-21T06:24:08.809Z,60.64
2018-05-21T06:26:36.926Z,59.82
2018-05-21T06:29:05.834Z,60.12
2018-05-21T06:31:33.938Z,60.91
2018-05-21T06:34:02.030Z,60.67
2018-05-21T06:36:29.943Z,59.85
2018-05-21T06:38:57.979Z,60.61
2018-05-21T06:41:25.977Z,63.40
2018-05-21T06:43:54.157Z,62.86
2018-05-21T06:46:22.169Z,60.23
2018-05-21T06:48:50.196Z,61.95
2018-05-21T06:51:18.335Z,61.87
2018-05-21T06:53:46.835Z,62.12
2018-05-21T06:56:15.343Z,63.31
2018-05-21T06:58:43.826Z,63.99
2018-05-21T07:01:12.606Z,64.95
2018-05-21T07:03:41.210Z,63.33
2018-05-21T07:06:09.893Z,63.80
2018-05-21T07:08:38.629Z,62.71
2018-05-21T07:11:06.682Z,62.66
2018-05-21T07:13:34.809Z,62.81
2018-05-21T07:16:03.311Z,61.20
2018-05-21T07:18:32.044Z,58.75
2018-05-21T07:21:00.111Z,61.92
2018-05-21T07:23:28.108Z,59.84
2018-05-21T07:25:56.150Z,59.27
2018-05-21T07:28:24.938Z,56.70
2018-05-21T07:30:53.578Z,55.93
2018-05-21T07:33:22.471Z,59.12
2018-05-21T07:35:51.235Z,60.37
2018-05-21T07:38:19.783Z,60.21
2018-05-21T07:40:48.443Z,57.06
2018-05-21T07:43:16.530Z,56.89
2018-05-21T07:45:44.966Z,56.59
2018-05-21T07:48:13.857Z,55.18
2018-05-21T07:50:42.336Z,54.02
2018-05-21T07:53:11.024Z,54.56
2018-05-21T07:55:39.592Z,54.30
2018-05-21T07:58:08.269Z,54.46
2018-05-21T08:00:36.874Z,53.58
2018-05-21T08:03:05.439Z,51.55
2018-05-21T08:05:34.122Z,50.22
2018-05-21T08:08:02.514Z,50.73
2018-05-21T08:10:31.083Z,52.49
2018-05-21T08:12:59.876Z,54.33
2018-05-21T08:15:28.234Z,53.96
2018-05-21T08:17:56.755Z,53.56
2018-05-21T08:20:25.510Z,52.92
2018-05-21T08:22:54.204Z,56.46
2018-05-21T08:25:22.717Z,53.19
2018-05-21T08:27:51.268Z,53.84
2018-05-21T08:30:19.963Z,53.53
2018-05-21T08:32:48.384Z,52.35
2018-05-21T08:35:17.342Z,50.38
2018-05-21T08:37:45.799Z,52.38
2018-05-21T08:40:14.384Z,49.77
2018-05-21T08:42:43.079Z,47.99
2018-05-21T08:45:11.671Z,48.49
2018-05-21T08:47:40.329Z,48.61
2018-05-21T08:50:08.917Z,51.18
2018-05-21T08:52:37.363Z,51.82
2018-05-21T08:55:06.074Z,52.84
2018-05-21T08:57:34.667Z,51.32
2018-05-21T09:00:02.961Z,51.73
2018-05-21T09:02:31.448Z,50.78
2018-05-21T09:05:00.308Z,50.97
2018-05-21T09:07:29.511Z,51.55
2018-05-21T09:09:58.159Z,52.07
2018-05-21T09:12:27.230Z,51.82
2018-05-21T09:14:56.309Z,50.89
2018-05-21T09:17:24.887Z,47.75
2018-05-21T09:19:53.572Z,46.79
2018-05-21T09:22:22.095Z,45.51
2018-05-21T09:24:50.835Z,45.01
2018-05-21T09:27:19.319Z,43.78
2018-05-21T09:29:47.978Z,44.40
2018-05-21T09:32:16.539Z,42.22
2018-05-21T09:34:44.702Z,43.41
2018-05-21T09:37:13.411Z,42.71
2018-05-21T09:39:42.280Z,45.44
2018-05-21T09:42:10.596Z,44.53
2018-05-21T09:44:38.604Z,44.65
2018-05-21T09:47:07.145Z,42.53
2018-05-21T09:49:35.619Z,43.30
2018-05-21T09:52:04.120Z,41.49
2018-05-21T09:54:32.160Z,39.74
2018-05-21T09:57:00.752Z,40.29
2018-05-21T09:59:28.820Z,40.51
2018-05-21T10:01:57.424Z,41.67
2018-05-21T10:04:25.887Z,42.58
2018-05-21T10:06:54.466Z,43.07
2018-05-21T10:09:23.067Z,42.13
2018-05-21T10:11:51.750Z,42.33
2018-05-21T10:14:20.214Z,44.55
2018-05-21T10:16:48.739Z,43.91
2018-05-21T10:19:17.305Z,43.48
2018-05-21T10:21:46.168Z,43.92
2018-05-21T10:24:14.851Z,43.42
2018-05-21T10:26:43.588Z,45.91
2018-05-21T10:29:12.091Z,46.48
2018-05-21T10:31:40.517Z,46.80
2018-05-21T10:34:09.182Z,49.94
2018-05-21T10:36:37.691Z,52.77
2018-05-21T10:39:07.191Z,50.71
2018-05-21T10:41:35.831Z,50.97
2018-05-21T10:44:04.555Z,50.54
2018-05-21T10:46:33.148Z,55.04
2018-05-21T10:49:01.606Z,55.75
2018-05-21T10:51:30.205Z,55.81
2018-05-21T10:53:58.773Z,55.51
2018-05-21T10:56:27.271Z,56.86
2018-05-21T10:58:55.946Z,55.50
2018-05-21T11:01:24.744Z,55.83
2018-05-21T11:03:52.964Z,57.64
2018-05-21T11:06:21.503Z,59.47
2018-05-21T11:08:49.806Z,58.65
2018-05-21T11:11:18.263Z,58.00
2018-05-21T11:13:46.835Z,57.72
2018-05-21T11:16:15.608Z,57.80
2018-05-21T11:18:44.438Z,57.64
2018-05-21T11:21:12.916Z,56.65
2018-05-21T11:23:41.480Z,57.09
2018-05-21T11:26:10.034Z,57.46
2018-05-21T11:28:38.723Z,55.70
2018-05-21T11:31:07.162Z,52.90
2018-05-21T11:33:35.689Z,50.37
2018-05-21T11:36:04.342Z,50.46
2018-05-21T11:38:32.780Z,50.82
2018-05-21T11:41:01.855Z,55.06
2018-05-21T11:43:30.639Z,52.53
2018-05-21T11:45:59.516Z,53.21
2018-05-21T11:48:28.207Z,52.72
2018-05-21T11:50:56.833Z,50.64
2018-05-21T11:53:25.575Z,50.59
2018-05-21T11:55:54.158Z,49.02
2018-05-21T11:58:22.705Z,50.07
2018-05-21T12:00:51.243Z,48.07
2018-05-21T12:03:20.173Z,46.91
2018-05-21T12:05:48.878Z,46.48
2018-05-21T12:08:17.396Z,46.86
2018-05-21T12:10:45.857Z,45.31
2018-05-21T12:13:14.288Z,43.46
2018-05-21T12:15:42.740Z,45.89
2018-05-21T12:18:11.499Z,44.54
2018-05-21T12:20:40.605Z,41.98
2018-05-21T12:23:09.115Z,44.01
2018-05-21T12:25:37.601Z,43.20
2018-05-21T12:28:06.442Z,45.15
2018-05-21T12:30:35.238Z,44.57
2018-05-21T12:33:04.118Z,45.23
2018-05-21T12:35:32.545Z,44.75
2018-05-21T12:38:01.012Z,45.61
2018-05-21T12:40:29.460Z,45.06
2018-05-21T12:42:58.014Z,45.52
2018-05-21T12:45:26.647Z,46.06
2018-05-21T12:47:55.436Z,46.83
2018-05-21T12:50:24.303Z,46.29
2018-05-21T12:52:53.083Z,47.48
2018-05-21T12:55:21.671Z,46.94
2018-05-21T12:57:50.181Z,48.13
2018-05-21T13:00:18.728Z,49.23
2018-05-21T13:02:47.335Z,50.21
2018-05-21T13:05:16.054Z,51.21
2018-05-21T13:07:44.598Z,50.31
2018-05-21T13:10:13.272Z,51.62
2018-05-21T13:12:41.701Z,51.84
2018-05-21T13:58:50.729Z,58.12
2018-05-21T14:01:19.138Z,63.14
2018-05-21T14:03:48.332Z,65.45
2018-05-21T14:06:16.830Z,66.70
2018-05-21T14:08:45.225Z,67.62
2018-05-21T14:11:13.771Z,65.78
2018-05-21T14:13:42.584Z,66.75
2018-05-21T14:16:11.036Z,65.63
2018-05-21T14:18:39.522Z,65.57
2018-05-21T14:21:08.187Z,70.23
2018-05-21T14:23:36.726Z,70.47
2018-05-21T14:26:05.180Z,71.74
2018-05-21T14:28:33.839Z,70.53
2018-05-21T14:31:02.366Z,71.01
2018-05-21T14:33:30.834Z,71.25
2018-05-21T14:35:59.490Z,72.30
2018-05-21T14:38:28.180Z,67.68
2018-05-21T14:40:56.375Z,66.08
2018-05-21T14:43:25.067Z,64.61
2018-05-21T14:45:53.415Z,66.84
2018-05-21T14:48:21.927Z,66.26
2018-05-21T14:50:50.585Z,64.91
2018-05-21T14:53:19.477Z,64.22
2018-05-21T14:55:48.018Z,64.18
2018-05-21T14:58:16.436Z,66.74
2018-05-21T15:00:45.512Z,66.66
2018-05-21T15:03:13.771Z,66.39
2018-05-21T15:05:42.393Z,65.63
2018-05-21T15:08:10.978Z,64.99
2018-05-21T15:10:39.458Z,64.74
2018-05-21T15:13:08.038Z,64.37
2018-05-21T15:15:36.715Z,63.30
2018-05-21T15:18:05.115Z,62.62
2018-05-21T15:20:33.885Z,62.56
2018-05-21T15:23:02.464Z,62.76
2018-05-21T15:25:31.115Z,63.29
2018-05-21T15:27:59.860Z,63.42
2018-05-21T15:30:28.449Z,63.55
2018-05-21T15:32:57.207Z,63.06
2018-05-21T15:35:26.094Z,62.60
2018-05-21T15:37:54.539Z,63.67
2018-05-21T15:40:22.848Z,63.15
2018-05-21T15:42:51.352Z,62.49
2018-05-21T15:45:19.843Z,62.76
2018-05-21T15:47:48.712Z,62.19
2018-05-21T15:50:17.317Z,63.45
2018-05-21T15:52:45.659Z,62.72
2018-05-21T15:55:14.245Z,65.32
2018-05-21T15:57:43.068Z,65.98
2018-05-21T16:00:11.321Z,65.01
2018-05-21T16:02:40.210Z,64.73
2018-05-21T16:05:08.570Z,64.27
2018-05-21T16:07:37.170Z,62.62
2018-05-21T16:10:05.844Z,62.41
2018-05-21T16:12:34.425Z,63.44
2018-05-21T16:15:02.923Z,64.45
2018-05-21T16:17:31.488Z,63.71
2018-05-21T16:20:00.066Z,63.29
2018-05-21T16:22:28.724Z,63.44
2018-05-21T16:24:57.463Z,64.11
2018-05-21T16:27:26.026Z,67.63
2018-05-21T16:29:54.405Z,67.74
2018-05-21T16:32:23.032Z,65.85
2018-05-21T16:34:51.567Z,68.76
2018-05-21T16:37:20.148Z,67.05
2018-05-21T16:39:48.666Z,68.18
2018-05-21T16:42:17.106Z,69.15
2018-05-21T16:44:46.089Z,67.60
2018-05-21T16:47:14.689Z,67.67
2018-05-21T16:49:43.438Z,68.37
2018-05-21T16:52:12.156Z,67.08
2018-05-21T16:54:41.043Z,69.47
2018-05-21T16:57:09.800Z,67.71
2018-05-21T16:59:38.134Z,67.94
2018-05-21T17:02:06.795Z,66.75
2018-05-21T17:04:35.713Z,67.99
2018-05-21T17:07:04.272Z,67.43
2018-05-21T17:09:32.665Z,68.36
2018-05-21T17:12:01.231Z,69.66
2018-05-21T17:14:29.819Z,68.34
2018-05-21T17:16:58.316Z,67.51
2018-05-21T17:19:26.879Z,66.75
2018-05-21T17:21:55.560Z,67.81
2018-05-21T17:24:24.055Z,67.98
2018-05-21T17:26:52.628Z,68.80
2018-05-21T17:29:21.020Z,71.05
2018-05-21T17:31:49.484Z,71.55
2018-05-21T17:34:18.109Z,70.76
2018-05-21T17:36:46.684Z,68.91
2018-05-21T17:39:14.660Z,68.62
2018-05-21T17:41:42.751Z,68.44
2018-05-21T17:44:11.374Z,69.99
2018-05-21T17:46:39.415Z,71.16
2018-05-21T17:49:07.455Z,71.96
2018-05-21T17:51:35.505Z,72.18
2018-05-21T17:54:03.524Z,72.19
2018-05-21T17:56:31.488Z,69.77
2018-05-21T17:58:59.476Z,70.23
2018-05-21T18:01:27.547Z,69.63
2018-05-21T18:03:55.754Z,69.70
2018-05-21T18:06:24.353Z,71.10
2018-05-21T18:08:53.319Z,70.50
2018-05-21T18:11:22.249Z,69.96
2018-05-21T18:13:50.845Z,70.22
2018-05-21T18:16:18.803Z,69.50
2018-05-21T18:18:46.898Z,70.25
2018-05-21T18:21:15.573Z,67.88
2018-05-21T18:23:43.584Z,66.96
2018-05-21T18:26:11.841Z,66.69
2018-05-21T18:28:39.878Z,68.03
2018-05-21T18:31:07.901Z,67.57
2018-05-21T18:33:35.925Z,67.56
2018-05-21T18:36:04.058Z,67.44
2018-05-21T18:38:32.056Z,66.61
2018-05-21T18:41:00.052Z,66.81
2018-05-21T18:43:28.208Z,69.02
2018-05-21T18:45:56.381Z,66.36
2018-05-21T18:48:24.447Z,66.48
2018-05-21T18:50:52.554Z,66.62
2018-05-21T18:53:20.560Z,66.83
2018-05-21T18:55:48.683Z,68.38
2018-05-21T18:58:16.694Z,67.24
2018-05-21T19:00:45.920Z,66.28
2018-05-21T19:03:13.948Z,65.38
2018-05-21T19:05:42.050Z,66.61
2018-05-21T19:08:10.687Z,66.25
2018-05-21T19:10:38.734Z,66.26
2018-05-21T19:13:12.670Z,65.39
2018-05-21T19:15:40.721Z,64.43
2018-05-21T19:18:08.759Z,64.56
2018-05-21T19:20:36.740Z,65.33
2018-05-21T19:23:04.913Z,64.62
2018-05-21T19:25:33.058Z,65.27
2018-05-21T19:28:01.111Z,65.14
2018-05-21T19:30:29.133Z,64.93
2018-05-21T19:32:57.170Z,65.28
2018-05-21T19:35:25.310Z,65.43
2018-05-21T19:37:53.319Z,65.50
2018-05-21T19:40:22.537Z,64.99
2018-05-21T19:42:50.604Z,65.34
2018-05-21T19:45:18.588Z,65.35
2018-05-21T19:47:46.687Z,65.55
2018-05-21T19:50:14.712Z,67.75
2018-05-21T19:52:42.722Z,66.77
2018-05-21T19:55:10.730Z,65.97
2018-05-21T19:57:38.795Z,65.77
2018-05-21T20:00:06.812Z,64.83
2018-05-21T20:02:34.864Z,65.75
2018-05-21T20:05:02.941Z,66.25
2018-05-21T20:07:30.884Z,65.97
2018-05-21T20:09:59.255Z,66.62
2018-05-21T20:12:27.391Z,68.29
2018-05-21T20:14:55.363Z,66.69
2018-05-21T20:17:23.338Z,67.19
2018-05-21T20:19:51.335Z,66.01
2018-05-21T20:22:19.359Z,65.79
2018-05-21T20:24:47.415Z,65.49
2018-05-21T20:27:15.414Z,65.75
2018-05-21T20:29:43.484Z,66.03
2018-05-21T20:32:11.473Z,65.28
2018-05-21T20:34:39.508Z,65.28
2018-05-21T20:37:07.542Z,65.90
2018-05-21T20:39:35.582Z,64.84
2018-05-21T20:42:03.661Z,64.98
2018-05-21T20:44:31.641Z,65.70
2018-05-21T20:46:59.605Z,65.86
2018-05-21T20:49:27.565Z,68.14
2018-05-21T20:51:55.538Z,68.31
2018-05-21T20:54:23.535Z,67.11
2018-05-21T20:56:51.551Z,68.49
2018-05-21T20:59:19.514Z,70.31
2018-05-21T21:01:47.534Z,72.15
2018-05-21T21:04:15.496Z,69.36
2018-05-21T21:06:43.402Z,67.92
2018-05-21T21:09:11.436Z,67.18
2018-05-21T21:11:39.905Z,66.52
2018-05-21T21:14:07.923Z,67.49
2018-05-21T21:16:35.940Z,66.95
2018-05-21T21:19:04.013Z,66.36
2018-05-21T21:21:32.040Z,66.75
2018-05-21T21:24:00.026Z,66.21
2018-05-21T21:26:27.965Z,65.33
2018-05-21T21:28:55.985Z,65.47
2018-05-21T21:31:23.963Z,66.52
2018-05-21T21:33:51.961Z,65.85
2018-05-21T21:36:19.966Z,65.44
2018-05-21T21:38:47.919Z,65.27
2018-05-21T21:41:15.933Z,65.81
2018-05-21T21:43:44.004Z,65.08
2018-05-21T21:46:11.971Z,64.92
2018-05-21T21:48:40.015Z,64.70
2018-05-21T21:51:08.065Z,65.01
2018-05-21T21:53:36.101Z,64.86
2018-05-21T21:56:04.122Z,65.18
2018-05-21T21:58:32.095Z,65.86
2018-05-21T22:01:00.183Z,67.14
2018-05-21T22:03:28.186Z,69.04
2018-05-21T22:05:56.285Z,67.82
2018-05-21T22:08:24.251Z,66.94
2018-05-21T22:10:52.340Z,65.81
2018-05-21T22:13:20.617Z,65.75
2018-05-21T22:15:48.581Z,65.73
2018-05-21T22:18:16.537Z,65.28
2018-05-21T22:20:44.604Z,64.71
2018-05-21T22:23:12.598Z,65.01
2018-05-21T22:25:40.619Z,64.32
2018-05-21T22:28:08.647Z,64.43
2018-05-21T22:30:36.628Z,64.49
2018-05-21T22:33:04.687Z,64.35
2018-05-21T22:35:32.697Z,64.40
2018-05-21T22:38:00.699Z,64.57
2018-05-21T22:40:28.728Z,64.95
2018-05-21T22:42:56.791Z,68.49
2018-05-21T22:45:24.823Z,67.97
2018-05-21T22:47:52.838Z,67.44
2018-05-21T22:50:20.847Z,68.99
2018-05-21T22:52:48.893Z,69.57
2018-05-21T22:55:16.916Z,70.21
2018-05-21T22:57:44.923Z,70.03
2018-05-21T23:00:12.930Z,69.17
2018-05-21T23:02:40.944Z,67.47
2018-05-21T23:05:08.985Z,66.39
2018-05-21T23:07:37.001Z,65.55
2018-05-21T23:10:05.018Z,65.39
2018-05-21T23:12:33.015Z,65.72
2018-05-21T23:15:01.306Z,66.27
2018-05-21T23:17:29.336Z,66.16
2018-05-21T23:19:57.363Z,65.80
2018-05-21T23:22:47.845Z,66.21
2018-05-21T23:25:15.829Z,65.63
2018-05-21T23:27:44.514Z,66.05
2018-05-21T23:30:12.627Z,66.10
2018-05-21T23:32:40.638Z,65.74
2018-05-21T23:35:08.704Z,65.74
2018-05-21T23:37:36.690Z,65.67
2018-05-21T23:40:04.695Z,65.27
2018-05-21T23:42:32.581Z,65.44
2018-05-21T23:45:00.716Z,65.41
2018-05-21T23:47:28.696Z,65.45
2018-05-21T23:49:56.722Z,65.38
2018-05-21T23:52:24.699Z,65.49
2018-05-21T23:54:52.802Z,64.95
2018-05-21T23:57:20.856Z,64.92
2018-05-21T23:59:48.902Z,65.22
